createdAt,value
2023-04-22T00:00:10.167Z,1018.74
2023-04-22T00:01:10.182Z,1018.71
2023-04-22T00:02:10.260Z,1018.75
2023-04-22T00:03:10.396Z,1018.71
2023-04-22T00:04:10.306Z,1018.69
2023-04-22T00:05:10.265Z,1018.68
2023-04-22T00:06:10.196Z,1018.65
2023-04-22T00:07:10.178Z,1018.65
2023-04-22T00:08:10.224Z,1018.63
2023-04-22T00:09:10.185Z,1018.66
2023-04-22T00:10:10.182Z,1018.66
2023-04-22T00:11:10.184Z,1018.6
2023-04-22T00:12:10.177Z,1018.65
2023-04-22T00:13:10.190Z,1018.63
2023-04-22T00:14:10.204Z,1018.63
2023-04-22T00:15:10.180Z,1018.6
2023-04-22T00:16:10.253Z,1018.62
2023-04-22T00:17:10.192Z,1018.58
2023-04-22T00:18:10.248Z,1018.61
2023-04-22T00:19:10.171Z,1018.56
2023-04-22T00:20:10.180Z,1018.6
2023-04-22T00:21:10.185Z,1018.6
2023-04-22T00:22:10.182Z,1018.56
2023-04-22T00:23:10.193Z,1018.58
2023-04-22T00:24:10.186Z,1018.58
2023-04-22T00:25:10.182Z,1018.51
2023-04-22T00:26:10.182Z,1018.52
2023-04-22T00:27:10.237Z,1018.56
2023-04-22T00:28:10.187Z,1018.51
2023-04-22T00:29:10.208Z,1018.52
2023-04-22T00:30:10.162Z,1018.53
2023-04-22T00:31:10.176Z,1018.56
2023-04-22T00:32:10.187Z,1018.55
2023-04-22T00:33:10.279Z,1018.54
2023-04-22T00:34:10.178Z,1018.52
2023-04-22T00:35:10.211Z,1018.56
2023-04-22T00:36:10.182Z,1018.51
2023-04-22T00:37:10.174Z,1018.54
2023-04-22T00:38:10.197Z,1018.51
2023-04-22T00:39:10.180Z,1018.52
2023-04-22T00:40:10.186Z,1018.51
2023-04-22T00:41:10.181Z,1018.52
2023-04-22T00:42:10.177Z,1018.51
2023-04-22T00:43:10.196Z,1018.48
2023-04-22T00:44:10.188Z,1018.48
2023-04-22T00:45:10.176Z,1018.48
2023-04-22T00:46:10.176Z,1018.48
2023-04-22T00:47:10.286Z,1018.49
2023-04-22T00:48:10.298Z,1018.51
2023-04-22T00:49:10.166Z,1018.48
2023-04-22T00:50:10.184Z,1018.49
2023-04-22T00:51:10.174Z,1018.49
2023-04-22T00:52:10.177Z,1018.49
2023-04-22T00:53:10.196Z,1018.45
2023-04-22T00:54:10.172Z,1018.39
2023-04-22T00:55:10.175Z,1018.43
2023-04-22T00:56:10.165Z,1018.43
2023-04-22T00:57:10.176Z,1018.41
2023-04-22T00:58:10.186Z,1018.39
2023-04-22T00:59:10.187Z,1018.42
2023-04-22T01:00:10.183Z,1018.45
2023-04-22T01:01:10.209Z,1018.42
2023-04-22T01:02:10.261Z,1018.45
2023-04-22T01:03:10.297Z,1018.4
2023-04-22T01:04:10.419Z,1018.42
2023-04-22T01:05:10.185Z,1018.4
2023-04-22T01:06:10.183Z,1018.36
2023-04-22T01:07:10.178Z,1018.35
2023-04-22T01:08:10.192Z,1018.38
2023-04-22T01:09:10.176Z,1018.37
2023-04-22T01:10:10.187Z,1018.37
2023-04-22T01:11:10.170Z,1018.35
2023-04-22T01:12:10.177Z,1018.4
2023-04-22T01:13:10.202Z,1018.41
2023-04-22T01:14:10.195Z,1018.4
2023-04-22T01:15:10.188Z,1018.43
2023-04-22T01:16:10.254Z,1018.43
2023-04-22T01:17:10.234Z,1018.41
2023-04-22T01:18:10.197Z,1018.42
2023-04-22T01:19:10.178Z,1018.42
2023-04-22T01:20:10.187Z,1018.42
2023-04-22T01:21:10.177Z,1018.42
2023-04-22T01:22:10.179Z,1018.41
2023-04-22T01:23:10.195Z,1018.42
2023-04-22T01:24:10.190Z,1018.43
2023-04-22T01:25:10.187Z,1018.4
2023-04-22T01:26:10.179Z,1018.37
2023-04-22T01:27:10.171Z,1018.38
2023-04-22T01:28:10.186Z,1018.41
2023-04-22T01:29:10.201Z,1018.36
2023-04-22T01:30:10.176Z,1018.4
2023-04-22T01:31:10.173Z,1018.46
2023-04-22T01:32:10.218Z,1018.38
2023-04-22T01:33:10.253Z,1018.43
2023-04-22T01:34:10.187Z,1018.36
2023-04-22T01:35:10.204Z,1018.33
2023-04-22T01:36:11.672Z,1018.42
2023-04-22T01:37:10.187Z,1018.42
2023-04-22T01:38:10.200Z,1018.34
2023-04-22T01:39:10.183Z,1018.32
2023-04-22T01:40:10.184Z,1018.33
2023-04-22T01:41:10.177Z,1018.36
2023-04-22T01:42:10.181Z,1018.33
2023-04-22T01:43:10.199Z,1018.3
2023-04-22T01:44:10.193Z,1018.32
2023-04-22T01:45:10.174Z,1018.33
2023-04-22T01:46:10.225Z,1018.29
2023-04-22T01:47:10.187Z,1018.29
2023-04-22T01:48:10.216Z,1018.28
2023-04-22T01:49:10.177Z,1018.24
2023-04-22T01:50:10.181Z,1018.26
2023-04-22T01:51:10.189Z,1018.23
2023-04-22T01:52:10.189Z,1018.25
2023-04-22T01:53:10.196Z,1018.25
2023-04-22T01:54:10.185Z,1018.28
2023-04-22T01:55:10.197Z,1018.26
2023-04-22T01:56:10.186Z,1018.26
2023-04-22T01:57:10.176Z,1018.25
2023-04-22T01:58:10.195Z,1018.24
2023-04-22T01:59:10.197Z,1018.24
2023-04-22T02:00:10.207Z,1018.25
2023-04-22T02:01:10.231Z,1018.24
2023-04-22T02:02:10.289Z,1018.23
2023-04-22T02:03:10.279Z,1018.2
2023-04-22T02:04:10.192Z,1018.25
2023-04-22T02:05:10.302Z,1018.25
2023-04-22T02:06:10.189Z,1018.19
2023-04-22T02:07:10.176Z,1018.17
2023-04-22T02:08:10.208Z,1018.22
2023-04-22T02:09:10.184Z,1018.19
2023-04-22T02:10:10.181Z,1018.19
2023-04-22T02:11:10.207Z,1018.16
2023-04-22T02:12:10.184Z,1018.19
2023-04-22T02:13:10.202Z,1018.16
2023-04-22T02:14:10.198Z,1018.14
2023-04-22T02:15:10.168Z,1018.17
2023-04-22T02:16:10.227Z,1018.2
2023-04-22T02:17:10.181Z,1018.18
2023-04-22T02:18:10.200Z,1018.17
2023-04-22T02:19:10.187Z,1018.17
2023-04-22T02:20:10.190Z,1018.17
2023-04-22T02:21:10.185Z,1018.15
2023-04-22T02:22:10.178Z,1018.12
2023-04-22T02:23:10.191Z,1018.11
2023-04-22T02:24:10.182Z,1018.07
2023-04-22T02:25:10.177Z,1018.09
2023-04-22T02:26:10.172Z,1018.05
2023-04-22T02:27:10.193Z,1018.08
2023-04-22T02:28:10.191Z,1018.11
2023-04-22T02:29:10.193Z,1018.09
2023-04-22T02:30:10.170Z,1018.05
2023-04-22T02:31:10.252Z,1018.09
2023-04-22T02:32:10.180Z,1018.05
2023-04-22T02:33:10.190Z,1018.05
2023-04-22T02:34:10.178Z,1018.03
2023-04-22T02:35:10.183Z,1018.02
2023-04-22T02:36:10.183Z,1018
2023-04-22T02:37:10.177Z,1017.99
2023-04-22T02:38:10.201Z,1018.01
2023-04-22T02:39:10.191Z,1018.01
2023-04-22T02:40:10.185Z,1017.99
2023-04-22T02:41:10.181Z,1018.03
2023-04-22T02:42:10.181Z,1018.01
2023-04-22T02:43:10.183Z,1017.96
2023-04-22T02:44:10.208Z,1017.98
2023-04-22T02:45:10.178Z,1018
2023-04-22T02:46:10.197Z,1017.98
2023-04-22T02:47:10.247Z,1018.01
2023-04-22T02:48:10.298Z,1018
2023-04-22T02:49:10.184Z,1017.96
2023-04-22T02:50:10.188Z,1018.01
2023-04-22T02:51:10.201Z,1017.94
2023-04-22T02:52:10.195Z,1017.93
2023-04-22T02:53:10.199Z,1017.99
2023-04-22T02:54:10.186Z,1017.98
2023-04-22T02:55:10.184Z,1018
2023-04-22T02:56:10.193Z,1017.94
2023-04-22T02:57:10.199Z,1017.93
2023-04-22T02:58:10.190Z,1017.94
2023-04-22T02:59:10.187Z,1017.94
2023-04-22T03:00:10.169Z,1017.92
2023-04-22T03:01:10.214Z,1017.92
2023-04-22T03:02:10.250Z,1017.9
2023-04-22T03:03:10.345Z,1017.94
2023-04-22T03:04:10.372Z,1017.98
2023-04-22T03:05:10.185Z,1017.92
2023-04-22T03:06:10.181Z,1017.93
2023-04-22T03:07:10.171Z,1017.9
2023-04-22T03:08:10.369Z,1017.87
2023-04-22T03:09:10.178Z,1017.93
2023-04-22T03:10:10.174Z,1017.86
2023-04-22T03:11:10.187Z,1017.86
2023-04-22T03:12:10.179Z,1017.83
2023-04-22T03:13:10.193Z,1017.86
2023-04-22T03:14:10.203Z,1017.83
2023-04-22T03:15:10.181Z,1017.83
2023-04-22T03:16:10.237Z,1017.8
2023-04-22T03:17:10.181Z,1017.81
2023-04-22T03:18:10.195Z,1017.84
2023-04-22T03:19:10.172Z,1017.77
2023-04-22T03:20:10.187Z,1017.77
2023-04-22T03:21:10.173Z,1017.83
2023-04-22T03:22:10.197Z,1017.82
2023-04-22T03:23:10.188Z,1017.78
2023-04-22T03:24:10.173Z,1017.77
2023-04-22T03:25:10.173Z,1017.75
2023-04-22T03:26:10.172Z,1017.77
2023-04-22T03:27:10.175Z,1017.76
2023-04-22T03:28:10.185Z,1017.79
2023-04-22T03:29:10.195Z,1017.77
2023-04-22T03:30:10.176Z,1017.78
2023-04-22T03:31:10.177Z,1017.75
2023-04-22T03:32:10.260Z,1017.75
2023-04-22T03:33:10.235Z,1017.72
2023-04-22T03:34:10.190Z,1017.7
2023-04-22T03:35:10.189Z,1017.73
2023-04-22T03:36:10.184Z,1017.71
2023-04-22T03:37:10.182Z,1017.7
2023-04-22T03:38:10.181Z,1017.75
2023-04-22T03:39:10.188Z,1017.76
2023-04-22T03:40:10.183Z,1017.75
2023-04-22T03:41:10.173Z,1017.72
2023-04-22T03:42:10.199Z,1017.71
2023-04-22T03:43:10.211Z,1017.78
2023-04-22T03:44:10.192Z,1017.83
2023-04-22T03:45:10.183Z,1017.77
2023-04-22T03:46:10.237Z,1017.79
2023-04-22T03:47:10.182Z,1017.8
2023-04-22T03:48:10.191Z,1017.76
2023-04-22T03:49:10.189Z,1017.76
2023-04-22T03:50:10.183Z,1017.75
2023-04-22T03:51:10.183Z,1017.79
2023-04-22T03:52:10.177Z,1017.73
2023-04-22T03:53:10.194Z,1017.75
2023-04-22T03:54:10.183Z,1017.76
2023-04-22T03:55:10.168Z,1017.81
2023-04-22T03:56:10.179Z,1017.77
2023-04-22T03:57:10.180Z,1017.79
2023-04-22T03:58:10.192Z,1017.85
2023-04-22T03:59:10.191Z,1017.85
2023-04-22T04:00:10.170Z,1017.81
2023-04-22T04:01:10.190Z,1017.81
2023-04-22T04:02:10.326Z,1017.86
2023-04-22T04:03:10.362Z,1017.87
2023-04-22T04:04:10.459Z,1017.84
2023-04-22T04:05:10.225Z,1017.8
2023-04-22T04:06:10.184Z,1017.82
2023-04-22T04:07:10.194Z,1017.85
2023-04-22T04:08:10.203Z,1017.78
2023-04-22T04:09:10.179Z,1017.81
2023-04-22T04:10:10.172Z,1017.84
2023-04-22T04:11:10.188Z,1017.81
2023-04-22T04:12:10.184Z,1017.82
2023-04-22T04:13:10.197Z,1017.78
2023-04-22T04:14:10.227Z,1017.72
2023-04-22T04:15:10.183Z,1017.77
2023-04-22T04:16:10.277Z,1017.77
2023-04-22T04:17:10.218Z,1017.78
2023-04-22T04:18:10.197Z,1017.77
2023-04-22T04:19:10.180Z,1017.75
2023-04-22T04:20:10.180Z,1017.75
2023-04-22T04:21:10.180Z,1017.81
2023-04-22T04:22:10.191Z,1017.8
2023-04-22T04:23:10.192Z,1017.77
2023-04-22T04:24:10.184Z,1017.77
2023-04-22T04:25:10.180Z,1017.79
2023-04-22T04:26:10.191Z,1017.77
2023-04-22T04:27:10.179Z,1017.76
2023-04-22T04:28:10.187Z,1017.76
2023-04-22T04:29:10.191Z,1017.7
2023-04-22T04:30:10.176Z,1017.73
2023-04-22T04:31:10.212Z,1017.71
2023-04-22T04:32:10.233Z,1017.69
2023-04-22T04:33:10.287Z,1017.72
2023-04-22T04:34:10.186Z,1017.67
2023-04-22T04:35:10.180Z,1017.76
2023-04-22T04:36:10.201Z,1017.71
2023-04-22T04:37:10.188Z,1017.71
2023-04-22T04:38:10.199Z,1017.7
2023-04-22T04:39:10.183Z,1017.72
2023-04-22T04:40:10.182Z,1017.73
2023-04-22T04:41:10.178Z,1017.77
2023-04-22T04:42:10.177Z,1017.79
2023-04-22T04:43:10.199Z,1017.73
2023-04-22T04:44:10.199Z,1017.76
2023-04-22T04:45:10.195Z,1017.72
2023-04-22T04:46:10.201Z,1017.76
2023-04-22T04:47:10.185Z,1017.77
2023-04-22T04:48:10.214Z,1017.78
2023-04-22T04:49:10.184Z,1017.71
2023-04-22T04:50:10.197Z,1017.71
2023-04-22T04:51:10.177Z,1017.71
2023-04-22T04:52:10.185Z,1017.72
2023-04-22T04:53:10.200Z,1017.72
2023-04-22T04:54:10.191Z,1017.77
2023-04-22T04:55:10.184Z,1017.73
2023-04-22T04:56:10.181Z,1017.73
2023-04-22T04:57:10.183Z,1017.72
2023-04-22T04:58:10.185Z,1017.75
2023-04-22T04:59:10.220Z,1017.73
2023-04-22T05:00:10.168Z,1017.73
2023-04-22T05:01:10.216Z,1017.77
2023-04-22T05:02:10.359Z,1017.77
2023-04-22T05:03:10.319Z,1017.76
2023-04-22T05:04:10.290Z,1017.77
2023-04-22T05:05:10.181Z,1017.78
2023-04-22T05:06:10.181Z,1017.79
2023-04-22T05:07:10.181Z,1017.71
2023-04-22T05:08:10.219Z,1017.76
2023-04-22T05:09:10.196Z,1017.77
2023-04-22T05:10:10.181Z,1017.73
2023-04-22T05:11:10.173Z,1017.73
2023-04-22T05:12:10.177Z,1017.71
2023-04-22T05:13:10.196Z,1017.76
2023-04-22T05:14:10.205Z,1017.71
2023-04-22T05:15:10.191Z,1017.79
2023-04-22T05:16:10.237Z,1017.76
2023-04-22T05:17:10.187Z,1017.73
2023-04-22T05:18:10.261Z,1017.7
2023-04-22T05:19:10.190Z,1017.72
2023-04-22T05:20:10.194Z,1017.73
2023-04-22T05:21:10.192Z,1017.75
2023-04-22T05:22:10.189Z,1017.76
2023-04-22T05:23:10.195Z,1017.71
2023-04-22T05:24:10.185Z,1017.76
2023-04-22T05:25:10.177Z,1017.76
2023-04-22T05:26:10.180Z,1017.77
2023-04-22T05:27:10.187Z,1017.77
2023-04-22T05:28:10.207Z,1017.79
2023-04-22T05:29:10.199Z,1017.75
2023-04-22T05:30:10.171Z,1017.8
2023-04-22T05:31:10.184Z,1017.83
2023-04-22T05:32:10.251Z,1017.8
2023-04-22T05:33:10.233Z,1017.83
2023-04-22T05:34:10.203Z,1017.83
2023-04-22T05:35:10.190Z,1017.84
2023-04-22T05:36:10.187Z,1017.84
2023-04-22T05:37:10.183Z,1017.84
2023-04-22T05:38:10.211Z,1017.83
2023-04-22T05:39:10.183Z,1017.85
2023-04-22T05:40:10.168Z,1017.83
2023-04-22T05:41:10.167Z,1017.83
2023-04-22T05:42:10.176Z,1017.82
2023-04-22T05:43:10.200Z,1017.77
2023-04-22T05:44:10.206Z,1017.79
2023-04-22T05:45:10.182Z,1017.79
2023-04-22T05:46:10.312Z,1017.8
2023-04-22T05:47:10.185Z,1017.81
2023-04-22T05:48:10.215Z,1017.8
2023-04-22T05:49:10.178Z,1017.8
2023-04-22T05:50:10.170Z,1017.82
2023-04-22T05:51:10.189Z,1017.82
2023-04-22T05:52:10.188Z,1017.82
2023-04-22T05:53:10.191Z,1017.83
2023-04-22T05:54:10.182Z,1017.84
2023-04-22T05:55:10.210Z,1017.8
2023-04-22T05:56:10.185Z,1017.8
2023-04-22T05:57:10.191Z,1017.8
2023-04-22T05:58:10.192Z,1017.8
2023-04-22T05:59:10.207Z,1017.83
2023-04-22T06:00:10.170Z,1017.8
2023-04-22T06:01:10.184Z,1017.79
2023-04-22T06:02:10.356Z,1017.79
2023-04-22T06:03:10.450Z,1017.8
2023-04-22T06:04:10.672Z,1017.82
2023-04-22T06:05:10.448Z,1017.8
2023-04-22T06:06:10.207Z,1017.83
2023-04-22T06:07:10.193Z,1017.81
2023-04-22T06:08:10.192Z,1017.81
2023-04-22T06:09:10.210Z,1017.78
2023-04-22T06:10:10.191Z,1017.81
2023-04-22T06:11:10.180Z,1017.83
2023-04-22T06:12:10.184Z,1017.83
2023-04-22T06:13:10.197Z,1017.84
2023-04-22T06:14:10.200Z,1017.79
2023-04-22T06:15:10.179Z,1017.8
2023-04-22T06:16:10.180Z,1017.77
2023-04-22T06:17:10.186Z,1017.75
2023-04-22T06:18:10.206Z,1017.77
2023-04-22T06:19:10.448Z,1017.79
2023-04-22T06:20:10.177Z,1017.78
2023-04-22T06:21:10.180Z,1017.77
2023-04-22T06:22:10.191Z,1017.76
2023-04-22T06:23:10.195Z,1017.77
2023-04-22T06:24:10.176Z,1017.78
2023-04-22T06:25:10.180Z,1017.77
2023-04-22T06:26:10.169Z,1017.77
2023-04-22T06:27:10.182Z,1017.72
2023-04-22T06:28:10.198Z,1017.79
2023-04-22T06:29:10.189Z,1017.75
2023-04-22T06:30:10.164Z,1017.75
2023-04-22T06:31:10.242Z,1017.77
2023-04-22T06:32:10.186Z,1017.73
2023-04-22T06:33:10.246Z,1017.73
2023-04-22T06:34:10.171Z,1017.78
2023-04-22T06:35:10.185Z,1017.76
2023-04-22T06:36:10.187Z,1017.75
2023-04-22T06:37:10.189Z,1017.69
2023-04-22T06:38:10.200Z,1017.7
2023-04-22T06:39:10.177Z,1017.69
2023-04-22T06:40:10.169Z,1017.67
2023-04-22T06:41:10.191Z,1017.65
2023-04-22T06:42:10.169Z,1017.65
2023-04-22T06:43:10.197Z,1017.68
2023-04-22T06:44:10.194Z,1017.64
2023-04-22T06:45:10.184Z,1017.65
2023-04-22T06:46:10.187Z,1017.59
2023-04-22T06:47:10.168Z,1017.64
2023-04-22T06:48:10.181Z,1017.6
2023-04-22T06:49:10.171Z,1017.62
2023-04-22T06:50:10.166Z,1017.61
2023-04-22T06:51:10.356Z,1017.6
2023-04-22T06:52:10.173Z,1017.57
2023-04-22T06:53:10.203Z,1017.56
2023-04-22T06:54:10.172Z,1017.56
2023-04-22T06:55:10.173Z,1017.54
2023-04-22T06:56:10.220Z,1017.55
2023-04-22T06:57:10.174Z,1017.55
2023-04-22T06:58:10.188Z,1017.58
2023-04-22T06:59:10.213Z,1017.57
2023-04-22T07:00:10.183Z,1017.6
2023-04-22T07:01:10.182Z,1017.55
2023-04-22T07:02:10.303Z,1017.58
2023-04-22T07:03:10.375Z,1017.48
2023-04-22T07:04:10.214Z,1017.55
2023-04-22T07:05:10.174Z,1017.52
2023-04-22T07:06:10.219Z,1017.53
2023-04-22T07:07:10.184Z,1017.48
2023-04-22T07:08:10.187Z,1017.52
2023-04-22T07:09:10.169Z,1017.57
2023-04-22T07:10:10.163Z,1017.49
2023-04-22T07:11:11.430Z,1017.44
2023-04-22T07:12:10.175Z,1017.48
2023-04-22T07:13:10.184Z,1017.46
2023-04-22T07:14:10.189Z,1017.49
2023-04-22T07:15:10.191Z,1017.56
2023-04-22T07:16:10.196Z,1017.64
2023-04-22T07:17:10.176Z,1017.49
2023-04-22T07:18:10.190Z,1017.52
2023-04-22T07:19:10.182Z,1017.5
2023-04-22T07:20:10.164Z,1017.48
2023-04-22T07:21:10.181Z,1017.42
2023-04-22T07:22:10.180Z,1017.46
2023-04-22T07:23:10.184Z,1017.49
2023-04-22T07:24:10.180Z,1017.49
2023-04-22T07:25:10.181Z,1017.46
2023-04-22T07:26:10.182Z,1017.53
2023-04-22T07:27:10.178Z,1017.46
2023-04-22T07:28:10.184Z,1017.44
2023-04-22T07:29:10.185Z,1017.47
2023-04-22T07:30:10.165Z,1017.47
2023-04-22T07:31:10.186Z,1017.44
2023-04-22T07:32:10.212Z,1017.44
2023-04-22T07:33:10.185Z,1017.49
2023-04-22T07:34:10.177Z,1017.4
2023-04-22T07:35:10.184Z,1017.4
2023-04-22T07:36:10.189Z,1017.36
2023-04-22T07:37:10.181Z,1017.43
2023-04-22T07:38:12.139Z,1017.39
2023-04-22T07:39:10.175Z,1017.42
2023-04-22T07:40:10.159Z,1017.42
2023-04-22T07:41:10.174Z,1017.44
2023-04-22T07:42:10.170Z,1017.4
2023-04-22T07:43:10.184Z,1017.42
2023-04-22T07:44:10.191Z,1017.43
2023-04-22T07:45:10.171Z,1017.46
2023-04-22T07:46:10.195Z,1017.46
2023-04-22T07:47:10.173Z,1017.55
2023-04-22T07:48:10.180Z,1017.47
2023-04-22T07:49:10.181Z,1017.54
2023-04-22T07:50:10.165Z,1017.54
2023-04-22T07:51:10.180Z,1017.59
2023-04-22T07:52:10.175Z,1017.54
2023-04-22T07:53:10.187Z,1017.55
2023-04-22T07:54:10.177Z,1017.44
2023-04-22T07:55:10.179Z,1017.54
2023-04-22T07:56:10.169Z,1017.54
2023-04-22T07:57:10.162Z,1017.54
2023-04-22T07:58:10.198Z,1017.46
2023-04-22T07:59:10.183Z,1017.42
2023-04-22T08:00:10.171Z,1017.41
2023-04-22T08:01:10.267Z,1017.39
2023-04-22T08:02:10.237Z,1017.36
2023-04-22T08:03:10.397Z,1017.42
2023-04-22T08:04:10.442Z,1017.41
2023-04-22T08:05:10.289Z,1017.37
2023-04-22T08:06:10.185Z,1017.33
2023-04-22T08:07:29.845Z,1017.37
2023-04-22T08:08:10.192Z,1017.33
2023-04-22T08:09:10.177Z,1017.36
2023-04-22T08:10:10.203Z,1017.32
2023-04-22T08:11:10.186Z,1017.32
2023-04-22T08:12:10.176Z,1017.39
2023-04-22T08:13:10.204Z,1017.39
2023-04-22T08:14:10.202Z,1017.35
2023-04-22T08:15:10.180Z,1017.31
2023-04-22T08:16:10.215Z,1017.35
2023-04-22T08:17:10.176Z,1017.26
2023-04-22T08:18:10.242Z,1017.27
2023-04-22T08:19:10.174Z,1017.31
2023-04-22T08:20:10.171Z,1017.29
2023-04-22T08:21:10.181Z,1017.25
2023-04-22T08:22:10.181Z,1017.27
2023-04-22T08:23:10.181Z,1017.23
2023-04-22T08:24:10.180Z,1017.27
2023-04-22T08:25:10.177Z,1017.25
2023-04-22T08:26:10.180Z,1017.26
2023-04-22T08:27:10.177Z,1017.24
2023-04-22T08:28:10.198Z,1017.24
2023-04-22T08:29:10.204Z,1017.26
2023-04-22T08:30:10.168Z,1017.18
2023-04-22T08:31:10.186Z,1017.2
2023-04-22T08:32:10.182Z,1017.2
2023-04-22T08:33:10.202Z,1017.21
2023-04-22T08:34:10.188Z,1017.17
2023-04-22T08:35:10.189Z,1017.13
2023-04-22T08:36:10.181Z,1017.13
2023-04-22T08:37:10.202Z,1017.16
2023-04-22T08:38:10.193Z,1017.21
2023-04-22T08:39:10.187Z,1017.19
2023-04-22T08:40:10.165Z,1017.09
2023-04-22T08:41:10.181Z,1017.14
2023-04-22T08:42:10.188Z,1017.11
2023-04-22T08:43:10.192Z,1017.13
2023-04-22T08:44:10.202Z,1017.12
2023-04-22T08:45:10.216Z,1017.16
2023-04-22T08:46:10.218Z,1017.17
2023-04-22T08:47:10.307Z,1017.18
2023-04-22T08:48:10.212Z,1017.19
2023-04-22T08:49:10.178Z,1017.14
2023-04-22T08:50:10.177Z,1017.22
2023-04-22T08:51:10.189Z,1017.19
2023-04-22T08:52:10.247Z,1017.2
2023-04-22T08:53:10.188Z,1017.17
2023-04-22T08:54:10.273Z,1017.15
2023-04-22T08:55:10.269Z,1017.13
2023-04-22T08:56:10.289Z,1017.26
2023-04-22T08:57:10.256Z,1017.26
2023-04-22T08:58:10.296Z,1017.16
2023-04-22T08:59:10.227Z,1017.18
2023-04-22T09:00:10.170Z,1017.11
2023-04-22T09:01:10.283Z,1017.15
2023-04-22T09:02:10.189Z,1017.18
2023-04-22T09:03:10.260Z,1017.2
2023-04-22T09:04:10.274Z,1017.23
2023-04-22T09:05:10.177Z,1017.14
2023-04-22T09:06:10.182Z,1017.16
2023-04-22T09:07:10.182Z,1017.19
2023-04-22T09:08:10.192Z,1017.18
2023-04-22T09:09:10.178Z,1017.14
2023-04-22T09:10:10.176Z,1017.12
2023-04-22T09:11:10.195Z,1017.1
2023-04-22T09:12:10.183Z,1017.1
2023-04-22T09:13:10.192Z,1017.09
2023-04-22T09:14:10.191Z,1017.15
2023-04-22T09:15:10.205Z,1017.08
2023-04-22T09:16:10.230Z,1017.07
2023-04-22T09:17:10.181Z,1017.02
2023-04-22T09:18:10.204Z,1017
2023-04-22T09:19:10.171Z,1017.01
2023-04-22T09:20:10.168Z,1017
2023-04-22T09:21:10.174Z,1017.03
2023-04-22T09:22:10.178Z,1016.97
2023-04-22T09:23:10.191Z,1017.01
2023-04-22T09:24:10.179Z,1016.95
2023-04-22T09:25:10.180Z,1016.99
2023-04-22T09:26:10.186Z,1017.06
2023-04-22T09:27:10.193Z,1016.99
2023-04-22T09:28:10.190Z,1016.9
2023-04-22T09:29:10.204Z,1016.94
2023-04-22T09:30:10.193Z,1016.91
2023-04-22T09:31:10.184Z,1016.87
2023-04-22T09:32:10.280Z,1016.88
2023-04-22T09:33:10.270Z,1016.91
2023-04-22T09:34:10.200Z,1016.9
2023-04-22T09:35:10.174Z,1016.87
2023-04-22T09:36:10.197Z,1016.84
2023-04-22T09:37:10.189Z,1016.85
2023-04-22T09:38:10.183Z,1016.85
2023-04-22T09:39:10.185Z,1016.85
2023-04-22T09:40:10.185Z,1016.85
2023-04-22T09:41:10.185Z,1016.89
2023-04-22T09:42:10.181Z,1016.9
2023-04-22T09:43:10.182Z,1016.88
2023-04-22T09:44:10.215Z,1016.89
2023-04-22T09:45:10.186Z,1016.84
2023-04-22T09:46:10.203Z,1016.78
2023-04-22T09:47:10.183Z,1016.8
2023-04-22T09:48:10.201Z,1016.8
2023-04-22T09:49:10.179Z,1016.79
2023-04-22T09:50:10.172Z,1016.82
2023-04-22T09:51:10.181Z,1016.79
2023-04-22T09:52:10.179Z,1016.76
2023-04-22T09:53:10.189Z,1016.77
2023-04-22T09:54:10.204Z,1016.7
2023-04-22T09:55:10.186Z,1016.73
2023-04-22T09:56:10.187Z,1016.79
2023-04-22T09:57:10.184Z,1016.79
2023-04-22T09:58:10.214Z,1016.83
2023-04-22T09:59:10.241Z,1016.7
2023-04-22T10:00:10.167Z,1016.69
2023-04-22T10:01:10.206Z,1016.78
2023-04-22T10:02:10.290Z,1016.68
2023-04-22T10:03:11.090Z,1016.69
2023-04-22T10:04:10.233Z,1016.62
2023-04-22T10:05:10.187Z,1016.62
2023-04-22T10:06:10.188Z,1016.63
2023-04-22T10:07:10.194Z,1016.56
2023-04-22T10:08:10.191Z,1016.61
2023-04-22T10:09:10.176Z,1016.64
2023-04-22T10:10:10.174Z,1016.63
2023-04-22T10:11:10.182Z,1016.55
2023-04-22T10:12:10.177Z,1016.49
2023-04-22T10:13:10.182Z,1016.54
2023-04-22T10:14:10.191Z,1016.53
2023-04-22T10:15:10.181Z,1016.49
2023-04-22T10:16:10.178Z,1016.52
2023-04-22T10:17:10.396Z,1016.59
2023-04-22T10:18:10.186Z,1016.55
2023-04-22T10:19:10.199Z,1016.48
2023-04-22T10:20:10.171Z,1016.53
2023-04-22T10:21:10.174Z,1016.47
2023-04-22T10:22:10.177Z,1016.53
2023-04-22T10:23:10.192Z,1016.55
2023-04-22T10:24:10.178Z,1016.43
2023-04-22T10:25:10.175Z,1016.4
2023-04-22T10:26:10.177Z,1016.38
2023-04-22T10:27:10.182Z,1016.36
2023-04-22T10:28:10.188Z,1016.44
2023-04-22T10:29:10.190Z,1016.41
2023-04-22T10:30:10.167Z,1016.47
2023-04-22T10:31:10.247Z,1016.49
2023-04-22T10:32:11.006Z,1016.35
2023-04-22T10:33:10.181Z,1016.32
2023-04-22T10:34:10.178Z,1016.25
2023-04-22T10:35:10.191Z,1016.36
2023-04-22T10:36:10.388Z,1016.26
2023-04-22T10:37:10.177Z,1016.26
2023-04-22T10:38:10.182Z,1016.26
2023-04-22T10:39:10.178Z,1016.25
2023-04-22T10:40:10.166Z,1016.26
2023-04-22T10:41:10.179Z,1016.27
2023-04-22T10:42:10.288Z,1016.19
2023-04-22T10:43:10.190Z,1016.36
2023-04-22T10:44:10.201Z,1016.3
2023-04-22T10:45:10.181Z,1016.24
2023-04-22T10:46:10.224Z,1016.29
2023-04-22T10:47:10.172Z,1016.28
2023-04-22T10:48:10.191Z,1016.16
2023-04-22T10:49:10.176Z,1016.08
2023-04-22T10:50:10.174Z,1016.05
2023-04-22T10:51:10.191Z,1016.07
2023-04-22T10:52:10.180Z,1016.17
2023-04-22T10:53:10.191Z,1016.24
2023-04-22T10:54:10.181Z,1016.16
2023-04-22T10:55:10.179Z,1016.15
2023-04-22T10:56:10.177Z,1016.07
2023-04-22T10:57:10.198Z,1016.07
2023-04-22T10:58:10.194Z,1016.08
2023-04-22T10:59:10.192Z,1016.09
2023-04-22T11:00:10.173Z,1016.04
2023-04-22T11:01:10.233Z,1015.98
2023-04-22T11:02:10.245Z,1016.04
2023-04-22T11:03:10.296Z,1016.06
2023-04-22T11:04:10.268Z,1015.99
2023-04-22T11:05:10.180Z,1016.02
2023-04-22T11:06:10.166Z,1015.95
2023-04-22T11:07:10.178Z,1015.91
2023-04-22T11:08:10.193Z,1015.98
2023-04-22T11:09:10.181Z,1015.93
2023-04-22T11:10:10.163Z,1015.94
2023-04-22T11:11:10.182Z,1016.04
2023-04-22T11:12:10.176Z,1015.99
2023-04-22T11:13:10.188Z,1015.99
2023-04-22T11:14:10.203Z,1015.95
2023-04-22T11:15:10.174Z,1015.93
2023-04-22T11:16:10.233Z,1015.86
2023-04-22T11:17:10.182Z,1015.8
2023-04-22T11:18:10.189Z,1015.74
2023-04-22T11:19:10.185Z,1015.77
2023-04-22T11:20:10.167Z,1015.91
2023-04-22T11:21:10.213Z,1015.76
2023-04-22T11:22:10.191Z,1015.78
2023-04-22T11:23:10.195Z,1015.84
2023-04-22T11:24:10.180Z,1015.78
2023-04-22T11:25:10.188Z,1015.8
2023-04-22T11:26:10.172Z,1015.86
2023-04-22T11:27:10.177Z,1015.83
2023-04-22T11:28:10.192Z,1015.82
2023-04-22T11:29:10.202Z,1015.78
2023-04-22T11:30:10.165Z,1015.81
2023-04-22T11:31:10.312Z,1015.79
2023-04-22T11:32:10.185Z,1015.79
2023-04-22T11:33:10.195Z,1015.73
2023-04-22T11:34:10.176Z,1015.75
2023-04-22T11:35:10.174Z,1015.79
2023-04-22T11:36:10.178Z,1015.73
2023-04-22T11:37:10.186Z,1015.72
2023-04-22T11:38:10.202Z,1015.83
2023-04-22T11:39:10.185Z,1015.75
2023-04-22T11:40:27.396Z,1015.72
2023-04-22T11:41:10.166Z,1015.78
2023-04-22T11:42:10.181Z,1015.68
2023-04-22T11:43:10.195Z,1015.69
2023-04-22T11:44:10.195Z,1015.72
2023-04-22T11:45:10.181Z,1015.73
2023-04-22T11:46:10.233Z,1015.72
2023-04-22T11:47:10.174Z,1015.6
2023-04-22T11:48:10.226Z,1015.85
2023-04-22T11:49:10.186Z,1015.69
2023-04-22T11:50:10.189Z,1015.68
2023-04-22T11:51:10.188Z,1015.62
2023-04-22T11:52:10.182Z,1015.64
2023-04-22T11:53:10.194Z,1015.58
2023-04-22T11:54:10.194Z,1015.64
2023-04-22T11:55:10.183Z,1015.59
2023-04-22T11:56:10.186Z,1015.51
2023-04-22T11:57:10.173Z,1015.51
2023-04-22T11:58:10.199Z,1015.55
2023-04-22T11:59:10.200Z,1015.71
2023-04-22T12:00:10.178Z,1015.58
2023-04-22T12:01:10.180Z,1015.63
2023-04-22T12:02:10.287Z,1015.6
2023-04-22T12:03:12.020Z,1015.53
2023-04-22T12:04:10.239Z,1015.62
2023-04-22T12:05:10.221Z,1015.54
2023-04-22T12:06:10.184Z,1015.61
2023-04-22T12:07:10.180Z,1015.49
2023-04-22T12:08:10.187Z,1015.55